Time;durP1;ratioP1;P1;durP2;ratioP2;P2;SDS_P1;SDS_P2;PMS_P1;PMS_P2;Temp;Humidity;BMP_temperature;BMP_pressure;BME280_temperature;BME280_humidity;BME280_pressure;Samples;Min_cycle;Max_cycle;Signal;HPM_P1;HPM_P2
2023/01/20 00:01:59;;;;;;;;;;;;;;;-0.09;100.00;101020.91;4982848;28;20036;-61
2023/01/20 00:04:24;;;;;;;;;;;;;;;-0.22;100.00;101009.59;4992326;28;20015;-61
2023/01/20 00:07:05;;;;;;;;;;;;;;;-0.08;100.00;101027.81;4971875;28;20218;-60
2023/01/20 00:09:30;;;;;;;;;;;;;;;-0.09;100.00;101034.81;4984840;28;20016;-61
2023/01/20 00:11:55;;;;;;;;;;;;;;;0.00;100.00;101041.25;4989924;28;19975;-61
2023/01/20 00:14:20;;;;;;;;;;;;;;;-0.04;100.00;101034.50;4997916;28;19914;-61
2023/01/20 00:16:46;;;;;;;;;;;;;;;-0.04;100.00;101029.28;4986374;28;19918;-61
2023/01/20 00:19:13;;;;;;;;;;;;;;;-0.05;100.00;101045.88;4989044;28;19941;-61
2023/01/20 00:21:38;;;;;;;;;;;;;;;-0.06;100.00;101041.59;4991299;28;20004;-61
2023/01/20 00:24:03;;;;;;;;;;;;;;;-0.06;100.00;101044.22;4989715;28;20017;-61
2023/01/20 00:26:28;;;;;;;;;;;;;;;-0.10;100.00;101047.94;4987124;28;20277;-61
2023/01/20 00:28:54;;;;;;;;;;;;;;;-0.13;100.00;101046.38;4984334;28;19983;-61
2023/01/20 00:31:19;;;;;;;;;;;;;;;-0.17;100.00;101047.50;4993430;28;20385;-61
2023/01/20 00:33:45;;;;;;;;;;;;;;;-0.15;100.00;101050.03;4988183;28;19921;-62
2023/01/20 00:36:11;;;;;;;;;;;;;;;-0.17;100.00;101042.28;4985352;28;19967;-61
2023/01/20 00:38:37;;;;;;;;;;;;;;;-0.15;100.00;101043.03;4995701;28;19924;-61
2023/01/20 00:41:02;;;;;;;;;;;;;;;-0.13;100.00;101050.75;4991062;28;19918;-61
2023/01/20 00:43:27;;;;;;;;;;;;;;;-0.12;100.00;101047.22;4987804;28;20289;-61
2023/01/20 00:45:52;;;;;;;;;;;;;;;-0.11;100.00;101048.88;4992400;28;19921;-61
2023/01/20 00:48:17;;;;;;;;;;;;;;;-0.08;100.00;101051.31;5003576;28;19964;-61
2023/01/20 00:50:43;;;;;;;;;;;;;;;-0.08;100.00;101051.31;4982856;28;19926;-61
2023/01/20 00:53:08;;;;;;;;;;;;;;;-0.07;100.00;101058.19;4989771;28;19925;-61
2023/01/20 00:55:33;;;;;;;;;;;;;;;-0.04;100.00;101060.63;4992557;28;19918;-61
2023/01/20 00:57:58;;;;;;;;;;;;;;;-0.03;100.00;101064.91;4987905;28;19965;-61
2023/01/20 01:00:23;;;;;;;;;;;;;;;-0.01;100.00;101070.84;4986690;28;20093;-61
2023/01/20 01:02:48;;;;;;;;;;;;;;;-0.01;100.00;101071.69;4991677;28;20012;-61
2023/01/20 01:05:14;;;;;;;;;;;;;;;-0.01;100.00;101076.06;4983002;28;19937;-61
2023/01/20 01:07:39;;;;;;;;;;;;;;;0.00;100.00;101077.78;4990818;28;19921;-61
2023/01/20 01:10:04;;;;;;;;;;;;;;;-0.03;100.00;101080.56;4988725;28;19918;-61
2023/01/20 01:12:30;;;;;;;;;;;;;;;-0.05;100.00;101082.44;4988893;28;19925;-61
2023/01/20 01:14:55;;;;;;;;;;;;;;;-0.07;100.00;101092.97;4989971;28;19952;-61
2023/01/20 01:17:22;;;;;;;;;;;;;;;-0.05;100.00;101095.47;4989754;28;19945;-60
2023/01/20 01:19:47;;;;;;;;;;;;;;;-0.10;100.00;101094.94;5001448;28;19964;-61
2023/01/20 01:22:13;;;;;;;;;;;;;;;-0.08;100.00;101093.06;4991719;28;19921;-61
2023/01/20 01:24:38;;;;;;;;;;;;;;;-0.09;100.00;101096.63;4987342;28;19977;-61
2023/01/20 01:27:03;;;;;;;;;;;;;;;-0.09;100.00;101096.63;4997015;28;20428;-61
2023/01/20 01:29:28;;;;;;;;;;;;;;;-0.07;100.00;101102.56;4996936;28;19929;-61
2023/01/20 01:31:53;;;;;;;;;;;;;;;-0.08;100.00;101104.34;4985463;28;20399;-61
2023/01/20 01:34:19;;;;;;;;;;;;;;;-0.06;100.00;101101.63;4990277;28;19945;-61
2023/01/20 01:36:44;;;;;;;;;;;;;;;-0.06;100.00;101106.84;4996313;28;19918;-61
2023/01/20 01:39:09;;;;;;;;;;;;;;;-0.04;100.00;101110.22;4997042;28;19918;-61
2023/01/20 01:41:34;;;;;;;;;;;;;;;-0.03;100.00;101111.88;4991533;28;19918;-61
2023/01/20 01:44:05;;;;;;;;;;;;;;;-0.02;100.00;101113.56;4989971;28;20381;-61
2023/01/20 01:46:31;;;;;;;;;;;;;;;-0.03;100.00;101102.28;4990596;28;20393;-62
2023/01/20 01:48:58;;;;;;;;;;;;;;;-0.04;100.00;101102.38;4991054;28;19930;-61
2023/01/20 01:51:29;;;;;;;;;;;;;;;-0.02;100.00;101110.94;4989118;28;19917;-61
2023/01/20 01:54:00;;;;;;;;;;;;;;;-0.03;100.00;101107.50;4989143;28;19922;-61
2023/01/20 01:56:27;;;;;;;;;;;;;;;-0.02;100.00;101110.94;4992706;28;19921;-61
2023/01/20 01:58:54;;;;;;;;;;;;;;;-0.01;100.00;101110.00;4993828;28;19918;-62
2023/01/20 02:01:19;;;;;;;;;;;;;;;-0.02;100.00;101117.00;4988441;28;19957;-60
2023/01/20 02:03:55;;;;;;;;;;;;;;;-0.05;100.00;101106.75;4988500;28;20329;-62
2023/01/20 02:06:23;;;;;;;;;;;;;;;-0.04;100.00;101105.81;4992750;28;20281;-61
2023/01/20 02:08:48;;;;;;;;;;;;;;;-0.07;100.00;101102.56;4989817;28;19968;-61
2023/01/20 02:11:13;;;;;;;;;;;;;;;-0.08;100.00;101106.13;4983352;28;19918;-60
2023/01/20 02:13:39;;;;;;;;;;;;;;;-0.12;100.00;101102.88;4991481;28;19956;-61
2023/01/20 02:16:04;;;;;;;;;;;;;;;-0.13;100.00;101106.41;4983708;28;20009;-61
2023/01/20 02:18:48;;;;;;;;;;;;;;;-0.13;100.00;101108.19;4985878;28;19926;-61
2023/01/20 02:21:22;;;;;;;;;;;;;;;-0.15;100.00;101104.84;4989244;28;20304;-61
2023/01/20 02:23:50;;;;;;;;;;;;;;;-0.15;100.00;101108.28;4995246;28;19976;-61
2023/01/20 02:26:34;;;;;;;;;;;;;;;-0.16;100.00;101108.38;4992572;28;19929;-60
2023/01/20 02:29:18;;;;;;;;;;;;;;;-0.17;100.00;101111.91;4998097;28;19925;-61
2023/01/20 02:31:49;;;;;;;;;;;;;;;-0.17;100.00;101109.31;4983020;28;19914;-60
2023/01/20 02:34:19;;;;;;;;;;;;;;;-0.18;100.00;101116.31;4998015;28;19926;-61
2023/01/20 02:36:52;;;;;;;;;;;;;;;-0.19;100.00;101112.03;4997108;28;19933;-61
2023/01/20 02:39:21;;;;;;;;;;;;;;;-0.18;100.00;101111.09;4982285;28;19918;-62
2023/01/20 02:41:49;;;;;;;;;;;;;;;-0.18;100.00;101110.25;4981410;28;20301;-61
2023/01/20 02:44:17;;;;;;;;;;;;;;;-0.19;100.00;101111.19;4991888;28;20032;-61
2023/01/20 02:47:03;;;;;;;;;;;;;;;-0.18;100.00;101113.69;4984022;28;19928;-61
2023/01/20 02:49:31;;;;;;;;;;;;;;;-0.19;100.00;101103.34;4998897;28;19941;-61
2023/01/20 02:52:18;;;;;;;;;;;;;;;-0.19;100.00;101106.78;4982333;28;21814;-61
2023/01/20 02:54:47;;;;;;;;;;;;;;;-0.19;100.00;101117.25;4985103;28;19918;-61
2023/01/20 02:57:14;;;;;;;;;;;;;;;-0.19;100.00;101111.19;4987728;28;19914;-61
2023/01/20 02:59:42;;;;;;;;;;;;;;;-0.22;100.00;101109.59;4978057;28;19922;-61
2023/01/20 03:02:19;;;;;;;;;;;;;;;-0.24;100.00;101106.25;4984541;28;20247;-61
2023/01/20 03:04:47;;;;;;;;;;;;;;;-0.25;100.00;101111.56;4988008;28;19918;-61
2023/01/20 03:07:13;;;;;;;;;;;;;;;-0.25;100.00;101120.22;4986399;28;19918;-61
2023/01/20 03:09:40;;;;;;;;;;;;;;;-0.28;100.00;101111.75;4985455;28;20491;-61
2023/01/20 03:12:10;;;;;;;;;;;;;;;-0.29;100.00;101116.09;4985230;28;19922;-61
2023/01/20 03:14:35;;;;;;;;;;;;;;;-0.29;100.00;101121.31;4997331;28;19936;-61
2023/01/20 03:17:01;;;;;;;;;;;;;;;-0.32;100.00;101127.56;4986555;28;19943;-61
2023/01/20 03:19:26;;;;;;;;;;;;;;;-0.31;100.00;101131.84;4984994;28;19918;-61
2023/01/20 03:21:51;;;;;;;;;;;;;;;-0.32;100.00;101121.50;4984955;28;19925;-61
2023/01/20 03:24:17;;;;;;;;;;;;;;;-0.32;100.00;101138.00;4992506;28;20009;-61
2023/01/20 03:26:42;;;;;;;;;;;;;;;-0.33;100.00;101135.50;4985444;28;20481;-61
2023/01/20 03:29:10;;;;;;;;;;;;;;;-0.33;100.00;101133.72;4987950;28;19972;-61
2023/01/20 03:31:38;;;;;;;;;;;;;;;-0.33;100.00;101135.50;4993152;28;19925;-61
2023/01/20 03:34:09;;;;;;;;;;;;;;;-0.33;100.00;101136.34;4985910;28;19976;-61
2023/01/20 03:36:35;;;;;;;;;;;;;;;-0.33;100.00;101143.31;4987678;28;19921;-61
2023/01/20 03:39:00;;;;;;;;;;;;;;;-0.33;100.00;101133.72;4986407;28;20313;-61
2023/01/20 03:41:44;;;;;;;;;;;;;;;-0.32;100.00;101143.22;4984362;28;20421;-61
2023/01/20 03:44:09;;;;;;;;;;;;;;;-0.33;100.00;101143.31;4988470;28;19917;-61
2023/01/20 03:46:43;;;;;;;;;;;;;;;-0.34;100.00;101145.09;4995832;28;19924;-61
2023/01/20 03:49:10;;;;;;;;;;;;;;;-0.33;100.00;101148.53;4984573;28;19922;-61
2023/01/20 03:51:45;;;;;;;;;;;;;;;-0.34;100.00;101145.09;4979549;28;20293;-61
2023/01/20 03:54:14;;;;;;;;;;;;;;;-0.35;100.00;101153.84;4984569;28;19917;-61
2023/01/20 03:56:54;;;;;;;;;;;;;;;-0.35;100.00;101153.84;4996369;28;19920;-61
2023/01/20 03:59:19;;;;;;;;;;;;;;;-0.34;100.00;101154.69;4984790;28;19953;-61
2023/01/20 04:01:45;;;;;;;;;;;;;;;-0.34;100.00;101149.47;4993723;28;19976;-61
2023/01/20 04:04:13;;;;;;;;;;;;;;;-0.35;100.00;101147.78;4994497;28;20503;-61
2023/01/20 04:06:40;;;;;;;;;;;;;;;-0.39;100.00;101147.16;4998734;28;20293;-60
2023/01/20 04:09:08;;;;;;;;;;;;;;;-0.38;100.00;101141.00;4986143;28;19938;-61
2023/01/20 04:11:34;;;;;;;;;;;;;;;-0.37;100.00;101145.28;4981363;28;19922;-61
2023/01/20 04:13:59;;;;;;;;;;;;;;;-0.37;100.00;101147.06;4988420;28;19924;-61
2023/01/20 04:16:25;;;;;;;;;;;;;;;-0.39;100.00;101154.13;4984622;28;19925;-61
2023/01/20 04:18:50;;;;;;;;;;;;;;;-0.41;100.00;101148.19;4987419;28;20327;-61
2023/01/20 04:21:23;;;;;;;;;;;;;;;-0.40;100.00;101149.84;4990495;28;19914;-61
2023/01/20 04:23:59;;;;;;;;;;;;;;;-0.44;100.00;101154.41;4989314;28;20016;-61
2023/01/20 04:26:24;;;;;;;;;;;;;;;-0.44;100.00;101149.19;4987734;28;19914;-61
2023/01/20 04:28:49;;;;;;;;;;;;;;;-0.43;100.00;101150.03;4991984;28;19922;-61
2023/01/20 04:31:15;;;;;;;;;;;;;;;-0.42;100.00;101147.34;4976294;28;20290;-61
2023/01/20 04:33:42;;;;;;;;;;;;;;;-0.41;100.00;101153.41;4997053;28;19921;-61
2023/01/20 04:36:07;;;;;;;;;;;;;;;-0.41;100.00;101143.78;4986188;28;19918;-61
2023/01/20 04:38:32;;;;;;;;;;;;;;;-0.40;100.00;101144.63;4982507;28;20033;-61
2023/01/20 04:40:57;;;;;;;;;;;;;;;-0.40;100.00;101150.69;4988342;28;19917;-61
2023/01/20 04:43:22;;;;;;;;;;;;;;;-0.41;100.00;101156.84;4981696;28;20400;-61
2023/01/20 04:45:48;;;;;;;;;;;;;;;-0.41;100.00;101164.66;4986521;28;19918;-61
2023/01/20 04:48:13;;;;;;;;;;;;;;;-0.39;100.00;101167.19;4992328;28;20451;-61
2023/01/20 04:50:39;;;;;;;;;;;;;;;-0.41;100.00;101167.28;4978432;28;19969;-61
2023/01/20 04:53:04;;;;;;;;;;;;;;;-0.42;100.00;101173.44;4991804;28;19918;-61
2023/01/20 04:55:30;;;;;;;;;;;;;;;-0.44;100.00;101164.84;4982381;28;19914;-61
2023/01/20 04:57:55;;;;;;;;;;;;;;;-0.42;100.00;101165.59;4988652;28;20016;-60
2023/01/20 05:00:21;;;;;;;;;;;;;;;-0.40;100.00;101166.34;4987050;28;20905;-62
2023/01/20 05:02:46;;;;;;;;;;;;;;;-0.37;100.00;101162.72;4980495;28;19930;-61
2023/01/20 05:05:11;;;;;;;;;;;;;;;-0.36;100.00;101164.38;4993431;28;19921;-61
2023/01/20 05:07:36;;;;;;;;;;;;;;;-0.39;100.00;101172.41;4981023;28;20480;-61
2023/01/20 05:10:02;;;;;;;;;;;;;;;-0.43;100.00;101163.09;4987732;28;19921;-61
2023/01/20 05:12:27;;;;;;;;;;;;;;;-0.48;100.00;101167.75;4978593;28;20395;-61
2023/01/20 05:14:52;;;;;;;;;;;;;;;-0.46;100.00;101181.53;4984834;28;19922;-61
2023/01/20 05:17:17;;;;;;;;;;;;;;;-0.47;100.00;101178.09;4985013;28;20631;-61
2023/01/20 05:19:42;;;;;;;;;;;;;;;-0.49;100.00;101187.78;4981064;28;19918;-61
2023/01/20 05:22:08;;;;;;;;;;;;;;;-0.52;100.00;101198.41;4985734;28;19913;-61
2023/01/20 05:24:33;;;;;;;;;;;;;;;-0.53;100.00;101190.66;4991085;28;19918;-60
2023/01/20 05:26:59;;;;;;;;;;;;;;;-0.52;100.00;101185.34;4988032;28;20379;-61
2023/01/20 05:29:24;;;;;;;;;;;;;;;-0.55;100.00;101175.09;5002007;28;20396;-61
2023/01/20 05:31:49;;;;;;;;;;;;;;;-0.58;100.00;101180.47;4991037;28;19918;-61
2023/01/20 05:34:15;;;;;;;;;;;;;;;-0.60;100.00;101174.50;4986895;28;19917;-61
2023/01/20 05:36:40;;;;;;;;;;;;;;;-0.61;100.00;101178.06;4990369;28;19921;-61
2023/01/20 05:39:05;;;;;;;;;;;;;;;-0.60;100.00;101178.88;4996247;28;19964;-61
2023/01/20 05:41:31;;;;;;;;;;;;;;;-0.59;100.00;101181.41;4992092;28;20017;-61
2023/01/20 05:43:56;;;;;;;;;;;;;;;-0.59;100.00;101191.84;4987042;28;19914;-61
2023/01/20 05:46:21;;;;;;;;;;;;;;;-0.61;100.00;101198.91;4992605;28;20486;-61
2023/01/20 05:48:46;;;;;;;;;;;;;;;-0.62;100.00;101181.59;4997336;28;19918;-60
2023/01/20 05:51:11;;;;;;;;;;;;;;;-0.62;100.00;101187.66;4994182;28;19937;-61
2023/01/20 05:53:36;;;;;;;;;;;;;;;-0.60;100.00;101184.94;4981156;28;19957;-61
2023/01/20 05:56:03;;;;;;;;;;;;;;;-0.60;100.00;101195.38;5005930;28;19924;-61
2023/01/20 05:58:28;;;;;;;;;;;;;;;-0.59;100.00;101188.38;4988211;28;19918;-61
2023/01/20 06:00:54;;;;;;;;;;;;;;;-0.59;100.00;101185.78;4996114;28;20024;-61
2023/01/20 06:03:19;;;;;;;;;;;;;;;-0.57;100.00;101192.63;4988900;28;19918;-61
2023/01/20 06:05:44;;;;;;;;;;;;;;;-0.57;100.00;101197.00;4988541;28;20397;-61
2023/01/20 06:08:09;;;;;;;;;;;;;;;-0.55;100.00;101193.38;4989274;28;20057;-61
2023/01/20 06:10:35;;;;;;;;;;;;;;;-0.53;100.00;101194.09;4993882;28;19917;-61
2023/01/20 06:13:00;;;;;;;;;;;;;;;-0.52;100.00;101195.78;4989878;28;20385;-61
2023/01/20 06:15:25;;;;;;;;;;;;;;;-0.52;100.00;101190.56;4985446;28;20004;-61
2023/01/20 06:17:51;;;;;;;;;;;;;;;-0.50;100.00;101196.53;4991410;28;19929;-60
2023/01/20 06:20:16;;;;;;;;;;;;;;;-0.50;100.00;101204.34;4992942;28;20612;-61
2023/01/20 06:22:41;;;;;;;;;;;;;;;-0.46;100.00;101197.19;4990452;28;19918;-61
2023/01/20 06:25:07;;;;;;;;;;;;;;;-0.47;100.00;101198.97;4985081;28;19929;-61
2023/01/20 06:27:32;;;;;;;;;;;;;;;-0.45;100.00;101199.69;4984164;28;19968;-61
2023/01/20 06:29:57;;;;;;;;;;;;;;;-0.43;100.00;101194.38;4984287;28;19925;-61
2023/01/20 06:32:22;;;;;;;;;;;;;;;-0.43;100.00;101192.63;4988701;28;19922;-61
2023/01/20 06:34:47;;;;;;;;;;;;;;;-0.42;100.00;101199.53;4983230;28;19918;-61
2023/01/20 06:37:13;;;;;;;;;;;;;;;-0.41;100.00;101189.91;4985039;28;20004;-61
2023/01/20 06:39:39;;;;;;;;;;;;;;;-0.40;100.00;101191.59;4988385;28;19929;-61
2023/01/20 06:42:04;;;;;;;;;;;;;;;-0.38;100.00;101187.13;4983600;28;19922;-61
2023/01/20 06:44:30;;;;;;;;;;;;;;;-0.38;100.00;101200.16;4987742;28;20420;-61
2023/01/20 06:46:56;;;;;;;;;;;;;;;-0.37;100.00;101196.63;4989079;28;20020;-61
2023/01/20 06:49:22;;;;;;;;;;;;;;;-0.37;100.00;101197.47;4990268;28;20373;-60
2023/01/20 06:51:48;;;;;;;;;;;;;;;-0.34;100.00;101199.88;4984426;28;19968;-61
2023/01/20 06:54:13;;;;;;;;;;;;;;;-0.34;100.00;101199.88;4993103;28;19968;-61
2023/01/20 06:56:38;;;;;;;;;;;;;;;-0.33;100.00;101192.91;4995387;28;19926;-61
2023/01/20 06:59:03;;;;;;;;;;;;;;;-0.33;100.00;101198.13;4985444;28;20404;-61
2023/01/20 07:01:30;;;;;;;;;;;;;;;-0.32;100.00;101200.63;5000268;28;19917;-61
2023/01/20 07:03:55;;;;;;;;;;;;;;;-0.32;100.00;101200.63;5001976;28;19964;-61
2023/01/20 07:06:25;;;;;;;;;;;;;;;-0.31;100.00;101202.31;4991960;28;19925;-61
2023/01/20 07:08:51;;;;;;;;;;;;;;;-0.31;100.00;101202.31;4988844;28;19973;-61
2023/01/20 07:11:16;;;;;;;;;;;;;;;-0.29;100.00;101204.00;4987811;28;19965;-61
2023/01/20 07:13:41;;;;;;;;;;;;;;;-0.31;100.00;101204.91;4988928;28;20008;-61
2023/01/20 07:16:07;;;;;;;;;;;;;;;-0.31;100.00;101204.91;4993644;28;20016;-61
2023/01/20 07:18:33;;;;;;;;;;;;;;;-0.29;100.00;101206.59;4978155;28;20427;-61
2023/01/20 07:20:59;;;;;;;;;;;;;;;-0.29;100.00;101225.69;4987199;28;19940;-61
2023/01/20 07:23:24;;;;;;;;;;;;;;;-0.28;100.00;101226.56;4988345;28;19918;-61
2023/01/20 07:26:15;;;;;;;;;;;;;;;-0.28;100.00;101223.97;4987934;28;20484;-61
2023/01/20 07:28:41;;;;;;;;;;;;;;;-0.27;100.00;101230.88;4991510;28;19945;-61
2023/01/20 07:31:06;;;;;;;;;;;;;;;-0.27;100.00;101229.09;4985528;28;20384;-61
2023/01/20 07:33:32;;;;;;;;;;;;;;;-0.28;100.00;101237.00;4984845;28;19925;-61
2023/01/20 07:35:57;;;;;;;;;;;;;;;-0.28;100.00;101231.78;4984077;28;20001;-61
2023/01/20 07:38:22;;;;;;;;;;;;;;;-0.29;100.00;101238.75;4986088;28;19921;-61
2023/01/20 07:40:47;;;;;;;;;;;;;;;-0.27;100.00;101246.50;4988402;28;20392;-61
2023/01/20 07:43:12;;;;;;;;;;;;;;;-0.25;100.00;101252.47;4985486;28;19998;-61
2023/01/20 07:45:38;;;;;;;;;;;;;;;-0.22;100.00;101241.84;4990964;28;19937;-61
2023/01/20 07:48:04;;;;;;;;;;;;;;;-0.21;100.00;101243.53;4987183;28;19928;-61
2023/01/20 07:50:29;;;;;;;;;;;;;;;-0.23;100.00;101254.06;4983639;28;19925;-61
2023/01/20 07:52:54;;;;;;;;;;;;;;;-0.23;100.00;101256.69;4980876;28;19918;-61
2023/01/20 07:55:20;;;;;;;;;;;;;;;-0.24;100.00;101244.56;4983126;28;19914;-62
2023/01/20 07:57:45;;;;;;;;;;;;;;;-0.24;100.00;101241.94;4987337;28;20012;-61
2023/01/20 08:00:10;;;;;;;;;;;;;;;-0.23;100.00;101253.22;4981014;28;19956;-61
2023/01/20 08:02:39;;;;;;;;;;;;;;;-0.22;100.00;101250.53;4981305;28;19914;-61
2023/01/20 08:05:04;;;;;;;;;;;;;;;-0.22;100.00;101250.53;4993479;28;19918;-61
2023/01/20 08:07:30;;;;;;;;;;;;;;;-0.20;100.00;101242.59;4993208;28;19929;-61
2023/01/20 08:09:56;;;;;;;;;;;;;;;-0.21;100.00;101248.75;4981314;28;19921;-61
2023/01/20 08:12:21;;;;;;;;;;;;;;;-0.23;100.00;101243.63;4984277;28;20031;-61
2023/01/20 08:14:46;;;;;;;;;;;;;;;-0.25;100.00;101240.28;4985514;28;19976;-61
2023/01/20 08:17:11;;;;;;;;;;;;;;;-0.26;100.00;101243.81;4984626;28;19992;-61
2023/01/20 08:19:36;;;;;;;;;;;;;;;-0.26;100.00;101248.19;4981373;28;20501;-61
2023/01/20 08:22:02;;;;;;;;;;;;;;;-0.27;100.00;101259.56;4983715;28;19949;-61
2023/01/20 08:24:27;;;;;;;;;;;;;;;-0.27;100.00;101259.56;4982450;28;20349;-61
2023/01/20 08:26:52;;;;;;;;;;;;;;;-0.27;100.00;101251.75;4997613;28;19993;-62
2023/01/20 08:29:17;;;;;;;;;;;;;;;-0.25;100.00;101268.97;4981282;28;20377;-61
2023/01/20 08:31:42;;;;;;;;;;;;;;;-0.26;100.00;101280.34;4978814;28;19929;-61
2023/01/20 08:34:08;;;;;;;;;;;;;;;-0.26;100.00;101274.28;4984924;28;19920;-61
2023/01/20 08:36:34;;;;;;;;;;;;;;;-0.25;100.00;101275.97;4980106;28;19929;-62
2023/01/20 08:39:01;;;;;;;;;;;;;;;-0.24;100.00;101282.88;4986241;28;20016;-61
2023/01/20 08:41:29;;;;;;;;;;;;;;;-0.24;100.00;101288.09;4980920;28;19925;-61
2023/01/20 08:43:54;;;;;;;;;;;;;;;-0.24;100.00;101282.88;4988536;28;19922;-61
2023/01/20 08:46:20;;;;;;;;;;;;;;;-0.25;100.00;101283.81;4989543;28;19914;-61
2023/01/20 08:48:45;;;;;;;;;;;;;;;-0.24;100.00;101285.47;4982515;28;20061;-61
2023/01/20 08:51:15;;;;;;;;;;;;;;;-0.23;100.00;101297.59;4981381;28;19917;-61
2023/01/20 08:53:41;;;;;;;;;;;;;;;-0.23;100.00;101285.38;4988114;28;19918;-62
2023/01/20 08:56:06;;;;;;;;;;;;;;;-0.22;100.00;101289.69;4987278;28;19920;-61
2023/01/20 08:58:32;;;;;;;;;;;;;;;-0.18;100.00;101285.94;4984854;28;20291;-61
2023/01/20 09:00:57;;;;;;;;;;;;;;;-0.16;100.00;101289.31;4989112;28;19918;-60
2023/01/20 09:03:22;;;;;;;;;;;;;;;-0.16;100.00;101298.91;4999205;28;19952;-60
2023/01/20 09:05:48;;;;;;;;;;;;;;;-0.16;100.00;101283.25;4986838;28;19957;-61
2023/01/20 09:08:13;;;;;;;;;;;;;;;-0.17;100.00;101287.63;4995481;28;20320;-61
2023/01/20 09:10:39;;;;;;;;;;;;;;;-0.16;100.00;101296.28;4980891;28;19949;-62
2023/01/20 09:13:04;;;;;;;;;;;;;;;-0.17;100.00;101282.41;4988018;28;20585;-62
2023/01/20 09:15:30;;;;;;;;;;;;;;;-0.17;100.00;101298.06;4990369;28;19922;-61
2023/01/20 09:17:55;;;;;;;;;;;;;;;-0.17;100.00;101285.03;4989461;28;19922;-61
2023/01/20 09:20:20;;;;;;;;;;;;;;;-0.17;100.00;101292.00;4987867;28;19914;-62
2023/01/20 09:22:45;;;;;;;;;;;;;;;-0.17;100.00;101295.47;4992456;28;19952;-62
2023/01/20 09:25:10;;;;;;;;;;;;;;;-0.18;100.00;101295.53;4999272;28;19918;-62
2023/01/20 09:27:36;;;;;;;;;;;;;;;-0.18;100.00;101300.78;4994526;28;19917;-61
2023/01/20 09:30:01;;;;;;;;;;;;;;;-0.18;100.00;101298.16;4990212;28;19945;-62
2023/01/20 09:32:26;;;;;;;;;;;;;;;-0.20;100.00;101297.41;4991387;28;20305;-62
2023/01/20 09:34:51;;;;;;;;;;;;;;;-0.18;100.00;101295.53;4992481;28;19922;-61
2023/01/20 09:45:53;;;;;;;;;;;;;;;-0.18;100.00;101296.38;4989548;28;19925;-62
2023/01/20 09:54:06;;;;;;;;;;;;;;;-0.17;100.00;101299.84;4988948;28;19921;-62
2023/01/20 09:56:35;;;;;;;;;;;;;;;-0.17;100.00;101300.69;5000380;28;19917;-61
2023/01/20 09:59:06;;;;;;;;;;;;;;;-0.17;100.00;101299.84;4992880;28;19918;-62
2023/01/20 10:01:37;;;;;;;;;;;;;;;-0.17;100.00;101289.41;4991939;28;19937;-61
2023/01/20 10:04:11;;;;;;;;;;;;;;;-0.17;100.00;101292.00;4987083;28;19980;-61
2023/01/20 10:06:54;;;;;;;;;;;;;;;-0.17;100.00;101297.22;4990062;28;19964;-61
2023/01/20 10:09:32;;;;;;;;;;;;;;;-0.17;100.00;101297.22;4994045;28;19917;-61
2023/01/20 10:12:05;;;;;;;;;;;;;;;-0.16;100.00;101296.28;4998548;28;20004;-61
2023/01/20 10:14:36;;;;;;;;;;;;;;;-0.17;100.00;101294.63;4992937;28;20333;-61
2023/01/20 10:17:22;;;;;;;;;;;;;;;-0.17;100.00;101299.84;4989579;28;19929;-61
2023/01/20 10:19:55;;;;;;;;;;;;;;;-0.16;100.00;101304.13;4991810;28;19918;-62
2023/01/20 10:22:26;;;;;;;;;;;;;;;-0.17;100.00;101305.06;4979710;28;19914;-61
2023/01/20 10:24:56;;;;;;;;;;;;;;;-0.19;100.00;101304.31;4993770;28;19918;-61
2023/01/20 10:27:24;;;;;;;;;;;;;;;-0.19;100.00;101304.31;4988558;28;20009;-61
2023/01/20 10:30:01;;;;;;;;;;;;;;;-0.19;100.00;101305.16;4979370;28;19989;-62
2023/01/20 10:32:32;;;;;;;;;;;;;;;-0.18;100.00;101314.66;4991822;28;19921;-62
2023/01/20 10:34:59;;;;;;;;;;;;;;;-0.16;100.00;101315.41;4984355;28;19922;-61
2023/01/20 10:37:25;;;;;;;;;;;;;;;-0.16;100.00;101312.78;4994927;28;20308;-62
2023/01/20 10:39:52;;;;;;;;;;;;;;;-0.13;100.00;101311.78;4986200;28;19914;-61
2023/01/20 10:42:18;;;;;;;;;;;;;;;-0.12;100.00;101316.06;4991950;28;20012;-61
2023/01/20 10:44:44;;;;;;;;;;;;;;;-0.11;100.00;101312.53;5001666;28;20021;-62
2023/01/20 10:47:09;;;;;;;;;;;;;;;-0.12;100.00;101316.91;4985560;28;20313;-61
2023/01/20 10:49:48;;;;;;;;;;;;;;;-0.11;100.00;101307.31;4980755;28;19914;-61
2023/01/20 10:52:13;;;;;;;;;;;;;;;-0.11;100.00;101315.97;4988504;28;19929;-62
2023/01/20 10:54:57;;;;;;;;;;;;;;;-0.11;100.00;101312.53;4984846;28;20008;-61
2023/01/20 10:57:22;;;;;;;;;;;;;;;-0.10;100.00;101308.97;4983565;28;19992;-61
2023/01/20 10:59:52;;;;;;;;;;;;;;;-0.11;100.00;101312.53;4993423;28;20023;-61
2023/01/20 11:02:33;;;;;;;;;;;;;;;-0.11;100.00;101310.75;4982164;28;19918;-61
2023/01/20 11:05:03;;;;;;;;;;;;;;;-0.10;100.00;101320.25;4989213;28;19914;-62
2023/01/20 11:07:30;;;;;;;;;;;;;;;-0.08;100.00;101317.56;4983975;28;19918;-62
2023/01/20 11:09:58;;;;;;;;;;;;;;;-0.02;100.00;101312.81;4992391;28;19926;-61
2023/01/20 11:12:26;;;;;;;;;;;;;;;0.04;100.00;101324.69;4990247;28;19949;-62
2023/01/20 11:14:52;;;;;;;;;;;;;;;0.09;100.00;101322.63;4985883;28;19949;-61
2023/01/20 11:17:19;;;;;;;;;;;;;;;0.14;100.00;101323.19;4990886;28;20553;-62
2023/01/20 11:19:50;;;;;;;;;;;;;;;0.19;100.00;101323.75;4991436;28;19934;-61
2023/01/20 11:22:21;;;;;;;;;;;;;;;0.23;100.00;101330.47;4986923;28;19918;-62
2023/01/20 11:24:46;;;;;;;;;;;;;;;0.25;100.00;101325.16;4990218;28;19921;-62
2023/01/20 11:27:20;;;;;;;;;;;;;;;0.28;100.00;101336.25;4992573;28;19921;-62
2023/01/20 11:29:48;;;;;;;;;;;;;;;0.32;100.00;101330.88;4986201;28;20510;-61
2023/01/20 11:32:24;;;;;;;;;;;;;;;0.35;100.00;101331.50;4987325;28;19918;-61
2023/01/20 11:34:49;;;;;;;;;;;;;;;0.38;100.00;101331.31;4983084;28;19924;-62
2023/01/20 11:37:17;;;;;;;;;;;;;;;0.40;100.00;101328.63;4985237;28;19917;-62
2023/01/20 11:39:55;;;;;;;;;;;;;;;0.42;100.00;101331.97;4986745;28;20005;-62
2023/01/20 11:42:21;;;;;;;;;;;;;;;0.46;100.00;101328.25;4988324;28;19918;-60
2023/01/20 11:44:48;;;;;;;;;;;;;;;0.49;100.00;101333.28;4985368;28;19924;-61
2023/01/20 11:47:33;;;;;;;;;;;;;;;0.50;100.00;101329.72;4986949;28;19914;-61
2023/01/20 11:50:19;;;;;;;;;;;;;;;0.53;100.00;101334.75;4988857;28;20340;-61
2023/01/20 11:52:46;;;;;;;;;;;;;;;0.56;100.00;101324.94;4991566;28;19914;-61
2023/01/20 11:55:11;;;;;;;;;;;;;;;0.60;100.00;101328.25;4990761;28;20024;-62
2023/01/20 11:57:37;;;;;;;;;;;;;;;0.63;100.00;101330.66;4983634;28;19922;-61
2023/01/20 12:00:02;;;;;;;;;;;;;;;0.66;100.00;101335.69;4986234;28;19957;-61
2023/01/20 12:02:28;;;;;;;;;;;;;;;0.70;100.00;101334.56;4980976;28;19964;-62
2023/01/20 12:04:55;;;;;;;;;;;;;;;0.77;100.00;101329.81;4987695;28;20436;-62
2023/01/20 12:07:33;;;;;;;;;;;;;;;0.80;100.00;101327.00;4976734;28;19918;-61
2023/01/20 12:10:03;;;;;;;;;;;;;;;0.84;100.00;101331.94;4982468;28;19961;-61
2023/01/20 12:12:31;;;;;;;;;;;;;;;0.91;100.00;101329.78;4986827;28;19928;-61
2023/01/20 12:15:00;;;;;;;;;;;;;;;0.96;100.00;101334.72;4990643;28;19968;-62
2023/01/20 12:17:45;;;;;;;;;;;;;;;0.99;100.00;101342.38;4986719;28;19932;-62
2023/01/20 12:20:14;;;;;;;;;;;;;;;0.98;100.00;101338.91;4983066;28;19941;-61
2023/01/20 12:22:52;;;;;;;;;;;;;;;0.96;100.00;101335.56;4985089;28;19921;-62
2023/01/20 12:25:20;;;;;;;;;;;;;;;0.97;100.00;101334.63;4983805;28;19921;-62
2023/01/20 12:27:50;;;;;;;;;;;;;;;0.96;100.00;101334.72;4984802;28;20393;-62
2023/01/20 12:30:23;;;;;;;;;;;;;;;0.97;100.00;101328.56;4981985;28;19973;-62
2023/01/20 12:32:49;;;;;;;;;;;;;;;0.93;100.00;101333.97;4989088;28;20011;-61
2023/01/20 12:35:14;;;;;;;;;;;;;;;0.91;100.00;101343.69;4991956;28;19921;-61
2023/01/20 12:37:51;;;;;;;;;;;;;;;0.92;100.00;101340.16;4994500;28;19914;-61
2023/01/20 12:40:25;;;;;;;;;;;;;;;0.91;100.00;101335.84;4987738;28;19964;-62
2023/01/20 12:43:05;;;;;;;;;;;;;;;0.90;100.00;101335.97;4983611;28;20344;-62
2023/01/20 12:45:51;;;;;;;;;;;;;;;0.88;100.00;101338.66;4993805;28;19918;-61